Time;durP1;ratioP1;P1;durP2;ratioP2;P2;SDS_P1;SDS_P2;PMS_P1;PMS_P2;Temp;Humidity;BMP_temperature;BMP_pressure;BME280_temperature;BME280_humidity;BME280_pressure;Samples;Min_cycle;Max_cycle;Signal;HPM_P1;HPM_P2
2024/01/20 00:01:57;;;;;;;11.13;1.87;;;26.40;65.50;;;;;;5064932;28;20678;-77
2024/01/20 00:04:25;;;;;;;9.10;1.97;;;26.20;65.60;;;;;;5057486;28;20204;-80
2024/01/20 00:06:52;;;;;;;8.23;1.80;;;26.00;66.40;;;;;;5067084;28;20179;-78
2024/01/20 00:09:19;;;;;;;11.73;2.27;;;26.00;66.20;;;;;;5054399;28;20192;-79
2024/01/20 00:11:47;;;;;;;5.30;1.70;;;26.10;66.20;;;;;;5067533;28;20233;-77
2024/01/20 00:14:14;;;;;;;7.20;2.23;;;26.30;65.70;;;;;;5053490;28;20253;-77
2024/01/20 00:16:41;;;;;;;11.60;1.97;;;26.40;66.00;;;;;;5054748;28;20254;-76
2024/01/20 00:19:09;;;;;;;14.90;2.40;;;26.50;65.10;;;;;;5061690;28;20597;-77
2024/01/20 00:21:38;;;;;;;10.57;2.30;;;26.30;65.00;;;;;;5065631;28;20245;-76
2024/01/20 00:24:05;;;;;;;10.63;2.13;;;26.20;65.90;;;;;;5053021;28;20297;-78
2024/01/20 00:26:33;;;;;;;9.53;2.27;;;26.30;65.30;;;;;;5055402;28;20188;-77
2024/01/20 00:29:00;;;;;;;10.57;2.53;;;26.00;65.50;;;;;;5055436;28;20287;-76
2024/01/20 00:31:30;;;;;;;11.83;2.40;;;25.80;66.20;;;;;;5053218;28;20267;-75
2024/01/20 00:33:57;;;;;;;9.97;1.90;;;25.70;67.10;;;;;;5056200;28;20179;-76
2024/01/20 00:36:25;;;;;;;11.80;2.10;;;25.70;67.70;;;;;;5056806;28;20215;-77
2024/01/20 00:38:52;;;;;;;10.23;2.30;;;25.90;66.60;;;;;;5058356;28;20236;-75
2024/01/20 00:41:19;;;;;;;8.90;2.00;;;26.20;66.30;;;;;;5057807;28;20187;-76
2024/01/20 00:43:47;;;;;;;10.97;2.20;;;26.20;65.90;;;;;;5055061;28;20183;-78
2024/01/20 00:46:14;;;;;;;9.67;2.67;;;26.40;65.20;;;;;;5061769;28;20543;-78
2024/01/20 00:48:41;;;;;;;10.57;2.23;;;26.60;64.60;;;;;;5060603;28;20176;-76
2024/01/20 00:51:09;;;;;;;8.70;2.27;;;26.70;63.90;;;;;;5053351;28;20188;-77
2024/01/20 00:53:36;;;;;;;8.07;2.20;;;26.70;63.80;;;;;;5064908;28;20200;-75
2024/01/20 00:56:03;;;;;;;10.77;2.17;;;26.70;62.60;;;;;;5054773;28;20188;-77
2024/01/20 00:58:31;;;;;;;11.17;2.27;;;26.80;63.00;;;;;;5061265;28;20191;-75
2024/01/20 01:00:58;;;;;;;6.00;1.90;;;27.00;62.30;;;;;;5063726;28;20188;-79
2024/01/20 01:03:25;;;;;;;8.23;2.23;;;26.80;63.20;;;;;;5054319;28;20180;-78
2024/01/20 01:05:53;;;;;;;16.70;3.77;;;26.70;63.40;;;;;;5059462;28;20183;-77
2024/01/20 01:08:21;;;;;;;10.13;2.80;;;26.80;63.80;;;;;;5057576;28;20253;-80
2024/01/20 01:10:49;;;;;;;10.40;2.73;;;26.70;62.10;;;;;;5057800;28;20180;-80
2024/01/20 01:13:16;;;;;;;13.93;2.73;;;26.60;62.50;;;;;;5056370;28;20180;-76
2024/01/20 01:15:44;;;;;;;11.37;2.67;;;26.60;62.40;;;;;;5067176;28;20329;-78
2024/01/20 01:18:11;;;;;;;7.50;2.33;;;26.90;61.30;;;;;;5057610;28;20298;-77
2024/01/20 01:20:38;;;;;;;11.53;2.37;;;27.10;61.10;;;;;;5058067;28;20191;-77
2024/01/20 01:23:06;;;;;;;8.70;2.27;;;27.00;60.90;;;;;;5058055;28;20195;-78
2024/01/20 01:25:33;;;;;;;8.43;2.47;;;26.80;61.90;;;;;;5058045;28;20638;-82
2024/01/20 01:28:00;;;;;;;7.13;2.00;;;26.70;61.80;;;;;;5057810;28;20263;-74
2024/01/20 01:30:28;;;;;;;9.00;2.13;;;26.40;62.70;;;;;;5068050;28;20562;-79
2024/01/20 01:32:55;;;;;;;7.30;1.83;;;26.30;62.60;;;;;;5061851;28;20184;-76
2024/01/20 01:35:22;;;;;;;10.63;2.07;;;26.30;63.90;;;;;;5057939;28;20318;-76
2024/01/20 01:37:50;;;;;;;9.57;2.00;;;26.50;63.70;;;;;;5057461;28;20682;-76
2024/01/20 01:40:20;;;;;;;9.07;1.90;;;26.80;63.00;;;;;;5067848;28;20187;-79
2024/01/20 01:42:47;;;;;;;6.87;2.00;;;26.90;62.20;;;;;;5057707;28;20191;-74
2024/01/20 01:45:15;;;;;;;14.87;2.10;;;26.70;62.60;;;;;;5057315;28;20195;-77
2024/01/20 01:47:42;;;;;;;6.87;1.57;;;26.60;63.70;;;;;;5063462;28;20175;-76
2024/01/20 01:50:10;;;;;;;6.03;1.70;;;26.50;63.80;;;;;;5074936;28;20661;-75
2024/01/20 01:52:37;;;;;;;10.33;2.00;;;26.40;64.10;;;;;;5075106;28;20747;-78
2024/01/20 01:55:05;;;;;;;8.77;2.07;;;26.30;64.40;;;;;;5066489;28;20181;-77
2024/01/20 01:57:34;;;;;;;7.67;1.90;;;26.10;64.80;;;;;;5056971;28;20290;-75
2024/01/20 02:00:04;;;;;;;8.47;2.60;;;25.90;65.00;;;;;;5070724;28;20715;-75
2024/01/20 02:02:31;;;;;;;6.77;2.00;;;26.00;65.40;;;;;;5061065;28;20187;-74
2024/01/20 02:04:59;;;;;;;6.93;2.27;;;25.90;64.80;;;;;;5058431;28;20665;-75
2024/01/20 02:07:26;;;;;;;8.33;1.93;;;25.80;64.70;;;;;;5055550;28;20586;-75
2024/01/20 02:09:54;;;;;;;9.70;2.20;;;26.00;65.10;;;;;;5058273;28;20179;-78
2024/01/20 02:12:22;;;;;;;8.00;1.60;;;26.20;65.00;;;;;;5067300;28;20199;-75
2024/01/20 02:14:49;;;;;;;10.23;2.00;;;26.30;64.10;;;;;;5058057;28;20266;-76
2024/01/20 02:17:17;;;;;;;12.57;1.80;;;26.30;64.40;;;;;;5056236;28;20211;-76
2024/01/20 02:19:45;;;;;;;10.13;2.27;;;26.40;63.90;;;;;;5056422;28;20187;-77
2024/01/20 02:22:14;;;;;;;9.33;2.00;;;26.30;64.10;;;;;;5057457;28;20187;-74
2024/01/20 02:24:51;;;;;;;9.33;2.00;;;26.50;64.00;;;;;;5057014;28;20606;-77
2024/01/20 02:27:19;;;;;;;8.43;1.63;;;26.60;63.40;;;;;;5056267;28;20184;-76
2024/01/20 02:29:47;;;;;;;10.07;2.00;;;26.30;64.60;;;;;;5066708;28;20175;-74
2024/01/20 02:32:14;;;;;;;9.97;1.80;;;26.40;65.10;;;;;;5056989;28;20194;-76
2024/01/20 02:34:41;;;;;;;8.47;2.70;;;26.40;65.00;;;;;;5056030;28;20633;-78
2024/01/20 02:37:09;;;;;;;12.30;2.47;;;26.20;65.00;;;;;;5056861;28;20242;-77
2024/01/20 02:39:36;;;;;;;11.73;2.13;;;25.90;65.30;;;;;;5056522;28;20257;-76
2024/01/20 02:42:08;;;;;;;13.73;2.47;;;25.90;65.50;;;;;;5056179;28;20192;-76
2024/01/20 02:44:35;;;;;;;9.40;2.27;;;26.00;65.70;;;;;;5057474;28;20278;-79
2024/01/20 02:47:03;;;;;;;8.10;1.80;;;26.10;65.40;;;;;;5066096;28;20186;-75
2024/01/20 02:49:34;;;;;;;8.07;1.93;;;25.90;65.20;;;;;;5057125;28;20176;-76
2024/01/20 02:52:01;;;;;;;11.60;2.40;;;25.80;65.80;;;;;;5055962;28;20199;-80
2024/01/20 02:54:29;;;;;;;11.10;2.40;;;25.90;65.80;;;;;;5056563;28;20183;-80
2024/01/20 02:56:56;;;;;;;8.57;1.60;;;25.60;66.60;;;;;;5056286;28;20212;-78
2024/01/20 02:59:23;;;;;;;10.43;2.20;;;25.60;66.80;;;;;;5062729;28;20680;-74
2024/01/20 03:01:51;;;;;;;12.27;2.20;;;25.70;66.60;;;;;;5056841;28;20523;-77
2024/01/20 03:04:18;;;;;;;16.60;3.47;;;25.80;66.20;;;;;;5057914;28;20776;-77
2024/01/20 03:06:46;;;;;;;10.57;1.93;;;25.80;66.10;;;;;;5060886;28;20175;-75
2024/01/20 03:09:14;;;;;;;8.90;1.93;;;25.60;66.60;;;;;;5056829;28;20294;-77
2024/01/20 03:11:42;;;;;;;5.80;1.50;;;25.60;66.80;;;;;;5060480;28;20191;-75
2024/01/20 03:14:13;;;;;;;12.13;2.70;;;25.70;66.50;;;;;;5064844;28;20704;-76
2024/01/20 03:16:40;;;;;;;11.97;2.17;;;25.80;66.40;;;;;;5056164;28;20212;-76
2024/01/20 03:19:08;;;;;;;12.70;2.97;;;25.90;66.50;;;;;;5056682;28;20205;-76
2024/01/20 03:21:35;;;;;;;12.10;2.23;;;26.10;66.40;;;;;;5054617;28;20262;-79
2024/01/20 03:24:02;;;;;;;8.50;1.97;;;26.30;65.50;;;;;;5055793;28;20654;-78
2024/01/20 03:26:29;;;;;;;11.13;2.20;;;26.40;64.70;;;;;;5055398;28;20317;-77
2024/01/20 03:28:57;;;;;;;10.67;2.20;;;26.40;65.10;;;;;;5056024;28;20190;-76
2024/01/20 03:31:25;;;;;;;9.97;2.17;;;26.60;64.00;;;;;;5059138;28;20176;-79
2024/01/20 03:33:52;;;;;;;9.83;2.10;;;26.40;64.60;;;;;;5057333;28;20172;-76
2024/01/20 03:36:20;;;;;;;10.67;2.03;;;26.40;65.10;;;;;;5056182;28;20227;-76
2024/01/20 03:38:49;;;;;;;9.67;2.23;;;26.50;64.50;;;;;;5069668;28;20187;-78
2024/01/20 03:41:16;;;;;;;8.30;2.07;;;26.80;64.40;;;;;;5056632;28;20310;-79
2024/01/20 03:43:43;;;;;;;9.00;1.80;;;26.70;64.50;;;;;;5058654;28;20183;-78
2024/01/20 03:46:11;;;;;;;11.03;2.03;;;26.40;64.50;;;;;;5056597;28;20180;-80
2024/01/20 03:48:39;;;;;;;8.93;1.73;;;27.00;63.90;;;;;;5054644;28;20743;-78
2024/01/20 03:51:06;;;;;;;6.83;1.53;;;27.80;61.90;;;;;;5053404;28;20187;-77
2024/01/20 03:53:34;;;;;;;5.87;1.40;;;27.80;60.60;;;;;;5061984;28;20263;-77
2024/01/20 03:56:02;;;;;;;6.73;1.80;;;27.30;62.50;;;;;;5060139;28;20654;-74
2024/01/20 03:58:29;;;;;;;6.67;1.80;;;27.00;63.10;;;;;;5061752;28;20757;-76
2024/01/20 04:00:57;;;;;;;11.47;2.00;;;26.80;64.10;;;;;;5054010;28;20175;-77
2024/01/20 04:03:24;;;;;;;6.90;1.50;;;26.70;64.60;;;;;;5060900;28;20195;-78
2024/01/20 04:05:51;;;;;;;5.63;1.83;;;26.90;64.20;;;;;;5066504;28;20271;-80
2024/01/20 04:08:19;;;;;;;4.50;1.50;;;27.00;63.80;;;;;;5065478;28;20591;-75
2024/01/20 04:10:46;;;;;;;6.07;1.60;;;27.20;63.20;;;;;;5059338;28;20187;-76
2024/01/20 04:13:13;;;;;;;6.90;1.37;;;26.90;64.10;;;;;;5054329;28;20187;-79
2024/01/20 04:15:41;;;;;;;14.07;2.07;;;27.00;64.10;;;;;;5067447;28;20187;-77
2024/01/20 04:18:08;;;;;;;6.13;1.57;;;26.90;64.00;;;;;;5056096;28;20257;-77
2024/01/20 04:20:35;;;;;;;10.47;1.93;;;27.20;63.60;;;;;;5066449;28;20265;-81
2024/01/20 04:23:03;;;;;;;6.53;2.00;;;27.80;61.90;;;;;;5075317;28;20205;-77
2024/01/20 04:25:30;;;;;;;7.13;1.87;;;27.70;61.70;;;;;;5076239;28;20211;-78
2024/01/20 04:27:57;;;;;;;11.20;2.07;;;27.30;63.10;;;;;;5065807;28;20180;-75
2024/01/20 04:30:25;;;;;;;8.67;2.10;;;27.50;63.30;;;;;;5070714;28;20183;-76
2024/01/20 04:32:52;;;;;;;8.33;1.90;;;27.60;62.60;;;;;;5061258;28;20209;-76
2024/01/20 04:35:19;;;;;;;6.60;1.70;;;27.90;61.90;;;;;;5068799;28;20239;-77
2024/01/20 04:37:47;;;;;;;14.73;2.30;;;28.00;61.20;;;;;;5063331;28;20211;-78
2024/01/20 04:40:14;;;;;;;10.17;2.07;;;28.40;60.40;;;;;;5056313;28;20194;-78
2024/01/20 04:42:41;;;;;;;8.23;1.47;;;28.50;59.80;;;;;;5060637;28;20184;-75
2024/01/20 04:45:11;;;;;;;5.00;1.23;;;28.40;60.30;;;;;;5062463;28;20207;-76
2024/01/20 04:47:38;;;;;;;8.43;1.60;;;28.60;60.10;;;;;;5058394;28;20630;-79
2024/01/20 04:50:06;;;;;;;9.33;1.63;;;28.80;59.80;;;;;;5060450;28;20183;-79
2024/01/20 04:52:33;;;;;;;9.60;1.50;;;28.80;58.90;;;;;;5060253;28;20206;-77
2024/01/20 04:55:00;;;;;;;7.33;2.07;;;29.60;57.20;;;;;;5070604;28;20190;-74
2024/01/20 04:57:28;;;;;;;7.53;1.80;;;29.50;57.20;;;;;;5059695;28;20228;-73
2024/01/20 04:59:55;;;;;;;9.93;1.70;;;29.90;56.20;;;;;;5062686;28;20257;-75
2024/01/20 05:02:22;;;;;;;7.80;1.70;;;29.80;56.20;;;;;;5057191;28;20179;-78
2024/01/20 05:04:50;;;;;;;8.40;1.77;;;29.30;56.90;;;;;;5058575;28;20668;-75
2024/01/20 05:07:18;;;;;;;5.97;1.85;;;28.60;58.60;;;;;;5059149;28;20275;-79
2024/01/20 05:09:45;;;;;;;8.00;1.87;;;28.10;60.00;;;;;;5060409;28;20188;-75
2024/01/20 05:12:13;;;;;;;7.10;1.57;;;27.90;61.40;;;;;;5061718;28;20184;-77
2024/01/20 05:14:40;;;;;;;13.30;2.30;;;27.40;62.30;;;;;;5073320;28;20263;-77
2024/01/20 05:17:08;;;;;;;9.10;1.90;;;27.10;63.70;;;;;;5062135;28;20252;-75
2024/01/20 05:19:41;;;;;;;9.57;2.10;;;27.00;64.00;;;;;;5072898;28;20191;-79
2024/01/20 05:22:08;;;;;;;10.93;2.10;;;26.80;64.60;;;;;;5060203;28;20188;-82
2024/01/20 05:24:35;;;;;;;11.67;1.83;;;27.30;63.50;;;;;;5058192;28;20271;-78
2024/01/20 05:27:03;;;;;;;8.43;1.73;;;27.90;62.20;;;;;;5057125;28;20191;-75
2024/01/20 05:29:31;;;;;;;6.87;1.93;;;27.90;61.90;;;;;;5066034;28;20187;-78
2024/01/20 05:31:58;;;;;;;6.30;1.93;;;27.90;61.80;;;;;;5064210;28;20262;-79
2024/01/20 05:34:25;;;;;;;8.80;1.70;;;28.00;61.00;;;;;;5073740;28;20301;-76
2024/01/20 05:36:52;;;;;;;10.17;1.90;;;28.40;60.50;;;;;;5065593;28;20230;-76
2024/01/20 05:39:20;;;;;;;12.60;2.07;;;28.60;60.80;;;;;;5066152;28;20187;-79
2024/01/20 05:41:47;;;;;;;10.90;1.90;;;29.60;57.90;;;;;;5078468;28;20658;-80
2024/01/20 05:44:14;;;;;;;11.13;2.00;;;30.00;56.30;;;;;;5067270;28;20190;-77
2024/01/20 05:46:42;;;;;;;9.13;2.00;;;29.60;57.20;;;;;;5075762;28;20308;-75
2024/01/20 05:49:09;;;;;;;6.93;1.48;;;30.00;56.30;;;;;;5069405;28;20794;-78
2024/01/20 05:51:36;;;;;;;8.45;1.65;;;30.10;56.40;;;;;;5075491;28;20710;-77
2024/01/20 05:54:04;;;;;;;7.10;1.50;;;28.90;59.60;;;;;;5078450;28;20280;-77
2024/01/20 05:56:31;;;;;;;10.90;2.47;;;28.30;61.30;;;;;;5075002;28;20219;-77
2024/01/20 05:58:59;;;;;;;7.27;2.10;;;27.80;62.90;;;;;;5077133;28;20274;-75
2024/01/20 06:01:26;;;;;;;11.50;2.27;;;27.20;64.80;;;;;;5078622;28;20186;-76
2024/01/20 06:03:53;;;;;;;13.30;2.33;;;27.50;63.70;;;;;;5075065;28;20187;-76
2024/01/20 06:06:21;;;;;;;9.50;2.10;;;28.00;62.00;;;;;;5067617;28;20516;-78
2024/01/20 06:08:48;;;;;;;12.03;2.50;;;28.90;60.30;;;;;;5073826;28;20183;-78
2024/01/20 06:11:15;;;;;;;8.13;1.83;;;29.60;58.10;;;;;;5074593;28;20175;-79
2024/01/20 06:13:43;;;;;;;11.70;1.83;;;29.60;57.70;;;;;;5073929;28;20187;-75
2024/01/20 06:16:12;;;;;;;10.70;2.10;;;29.50;58.50;;;;;;5082408;28;20195;-74
2024/01/20 06:18:40;;;;;;;7.45;1.83;;;29.80;57.40;;;;;;5063941;28;20233;-76
2024/01/20 06:21:08;;;;;;;7.93;1.88;;;29.30;58.60;;;;;;5074978;28;20182;-77
2024/01/20 06:23:36;;;;;;;14.00;2.40;;;28.80;60.30;;;;;;5074828;28;20274;-79
2024/01/20 06:26:03;;;;;;;8.17;2.10;;;28.60;61.00;;;;;;5074473;28;20175;-80
2024/01/20 06:28:30;;;;;;;8.77;2.07;;;27.70;63.30;;;;;;5073553;28;20179;-76
2024/01/20 06:30:58;;;;;;;10.33;2.00;;;27.40;64.20;;;;;;5071510;28;20209;-77
2024/01/20 06:33:25;;;;;;;12.17;2.30;;;27.10;65.40;;;;;;5071489;28;20179;-75
2024/01/20 06:35:52;;;;;;;9.63;2.07;;;26.90;66.30;;;;;;5078647;28;20254;-81
2024/01/20 06:38:20;;;;;;;9.43;1.87;;;26.80;66.50;;;;;;5074918;28;20219;-77
2024/01/20 06:40:47;;;;;;;12.40;2.27;;;26.50;67.30;;;;;;5076890;28;20254;-77
2024/01/20 06:43:14;;;;;;;5.93;1.60;;;26.60;68.00;;;;;;5071984;28;20192;-82
2024/01/20 06:45:42;;;;;;;7.80;1.80;;;26.80;67.40;;;;;;5074948;28;20248;-76
2024/01/20 06:48:09;;;;;;;12.83;1.70;;;27.00;67.00;;;;;;5071555;28;20267;-77
2024/01/20 06:50:43;;;;;;;11.83;2.00;;;27.10;65.60;;;;;;5069468;28;20588;-76
2024/01/20 06:53:11;;;;;;;10.87;2.37;;;27.30;65.50;;;;;;5073498;28;20266;-76
2024/01/20 06:55:38;;;;;;;9.70;2.27;;;27.90;63.80;;;;;;5074411;28;20316;-80
2024/01/20 06:58:06;;;;;;;7.73;2.07;;;28.40;62.20;;;;;;5072127;28;20680;-77
2024/01/20 07:00:33;;;;;;;14.77;2.30;;;28.70;62.00;;;;;;5075404;28;20591;-77
2024/01/20 07:03:00;;;;;;;11.90;2.17;;;28.80;61.10;;;;;;5071409;28;20214;-77
2024/01/20 07:05:28;;;;;;;8.83;1.80;;;29.30;59.80;;;;;;5070817;28;20187;-75
2024/01/20 07:07:55;;;;;;;10.43;2.77;;;28.90;60.50;;;;;;5071029;28;20240;-76
2024/01/20 07:10:22;;;;;;;17.37;7.40;;;28.30;62.40;;;;;;5073095;28;20201;-75
2024/01/20 07:12:50;;;;;;;10.80;3.50;;;28.00;63.90;;;;;;5073538;28;20187;-77
2024/01/20 07:15:17;;;;;;;10.97;3.07;;;28.60;62.70;;;;;;5083169;28;20286;-77
2024/01/20 07:17:44;;;;;;;11.25;1.73;;;29.00;61.10;;;;;;5070678;28;20222;-78
2024/01/20 07:20:12;;;;;;;8.20;1.93;;;28.80;61.30;;;;;;5071168;28;20187;-77
2024/01/20 07:22:41;;;;;;;5.73;1.73;;;29.00;60.50;;;;;;5074840;28;20194;-76
2024/01/20 07:25:09;;;;;;;13.10;2.87;;;28.60;61.70;;;;;;5074547;28;20179;-75
2024/01/20 07:27:37;;;;;;;10.23;2.30;;;28.30;62.80;;;;;;5068931;28;20664;-79
2024/01/20 07:30:04;;;;;;;9.70;2.40;;;28.10;63.20;;;;;;5072017;28;20202;-75
2024/01/20 07:32:32;;;;;;;10.53;2.47;;;27.90;64.30;;;;;;5072790;28;20191;-77
2024/01/20 07:34:59;;;;;;;9.53;2.10;;;27.60;65.30;;;;;;5068607;28;20581;-78
2024/01/20 07:37:26;;;;;;;6.20;1.90;;;27.50;65.60;;;;;;5077337;28;20221;-75
2024/01/20 07:39:54;;;;;;;9.83;2.50;;;26.90;67.10;;;;;;5073029;28;20229;-75
2024/01/20 07:42:21;;;;;;;13.90;2.40;;;26.60;68.40;;;;;;5083818;28;20270;-76
2024/01/20 07:44:48;;;;;;;10.40;2.53;;;26.60;68.30;;;;;;5071619;28;20664;-79
2024/01/20 07:47:16;;;;;;;11.17;2.53;;;26.10;70.30;;;;;;5072901;28;20187;-78
2024/01/20 07:49:43;;;;;;;14.47;2.20;;;26.20;70.10;;;;;;5064628;28;20183;-75
2024/01/20 07:52:10;;;;;;;10.03;2.10;;;26.20;69.90;;;;;;5066347;28;20183;-78
2024/01/20 07:54:38;;;;;;;13.57;2.37;;;26.20;69.90;;;;;;5076451;28;20179;-77
2024/01/20 07:57:05;;;;;;;7.53;2.47;;;26.10;70.10;;;;;;5073087;28;20203;-74
2024/01/20 07:59:32;;;;;;;12.47;2.13;;;26.00;70.10;;;;;;5071438;28;20187;-76
2024/01/20 08:01:59;;;;;;;10.43;2.10;;;26.10;70.40;;;;;;5072500;28;20191;-79
2024/01/20 08:04:28;;;;;;;9.77;2.40;;;26.10;70.40;;;;;;5073613;28;20179;-77
2024/01/20 08:06:56;;;;;;;12.20;2.50;;;26.10;70.00;;;;;;5070634;28;20664;-77
2024/01/20 08:09:23;;;;;;;11.60;2.40;;;26.00;70.50;;;;;;5079351;28;20282;-76
2024/01/20 08:11:51;;;;;;;9.47;2.23;;;25.70;71.20;;;;;;5072110;28;20190;-80
2024/01/20 08:14:18;;;;;;;10.90;2.30;;;25.60;71.60;;;;;;5073316;28;20194;-78
2024/01/20 08:16:45;;;;;;;13.57;2.17;;;25.50;72.10;;;;;;5070656;28;20253;-76
2024/01/20 08:19:12;;;;;;;15.40;3.33;;;25.40;72.40;;;;;;5072203;28;20210;-78
2024/01/20 08:21:40;;;;;;;9.60;2.00;;;25.30;72.70;;;;;;5075148;28;20187;-75
2024/01/20 08:24:08;;;;;;;9.17;2.20;;;25.10;72.90;;;;;;5074964;28;20199;-76
2024/01/20 08:26:35;;;;;;;11.23;2.57;;;25.00;73.10;;;;;;5074865;28;20191;-80
2024/01/20 08:29:02;;;;;;;10.10;2.50;;;25.00;73.50;;;;;;5076185;28;20175;-78
2024/01/20 08:31:29;;;;;;;8.80;2.20;;;25.00;73.50;;;;;;5075134;28;20183;-76
2024/01/20 08:33:57;;;;;;;8.07;2.30;;;24.90;73.50;;;;;;5072082;28;20254;-76
2024/01/20 08:36:24;;;;;;;10.57;2.30;;;24.90;73.80;;;;;;5078542;28;20278;-75
2024/01/20 08:38:51;;;;;;;11.50;2.80;;;24.80;74.00;;;;;;5077982;28;20186;-75
2024/01/20 08:41:19;;;;;;;9.03;2.40;;;24.80;74.40;;;;;;5076297;28;20512;-78
2024/01/20 08:43:47;;;;;;;11.90;1.97;;;24.80;74.50;;;;;;5077498;28;20179;-77
2024/01/20 08:46:15;;;;;;;11.90;2.60;;;24.80;74.60;;;;;;5079480;28;20202;-79
2024/01/20 08:48:42;;;;;;;12.60;2.40;;;24.70;74.70;;;;;;5077611;28;20209;-76
2024/01/20 08:51:09;;;;;;;12.87;2.63;;;24.70;74.80;;;;;;5060180;28;20639;-76
2024/01/20 08:53:39;;;;;;;7.83;2.03;;;24.60;74.90;;;;;;5078662;28;20666;-75
2024/01/20 08:56:06;;;;;;;11.47;2.27;;;24.60;75.10;;;;;;5075950;28;20179;-77
2024/01/20 08:58:34;;;;;;;12.67;2.53;;;24.60;75.30;;;;;;5075409;28;20260;-77
2024/01/20 09:01:01;;;;;;;16.60;2.50;;;24.60;75.30;;;;;;5076065;28;20510;-79
2024/01/20 09:03:28;;;;;;;14.57;2.77;;;24.60;75.60;;;;;;5075313;28;20221;-77
2024/01/20 09:05:56;;;;;;;11.97;2.30;;;24.60;75.50;;;;;;5081000;28;20217;-79
2024/01/20 09:08:23;;;;;;;12.90;2.30;;;24.50;75.70;;;;;;5084617;28;20607;-79
2024/01/20 09:10:51;;;;;;;10.53;2.83;;;24.50;75.90;;;;;;5081241;28;20227;-78
2024/01/20 09:13:18;;;;;;;10.93;2.37;;;24.60;76.00;;;;;;5077284;28;20645;-77
2024/01/20 09:15:46;;;;;;;13.67;2.50;;;24.50;76.10;;;;;;5084560;28;20646;-80
2024/01/20 09:18:16;;;;;;;12.90;2.50;;;24.50;76.10;;;;;;5076938;28;20210;-77
2024/01/20 09:20:43;;;;;;;8.17;2.10;;;24.50;76.20;;;;;;5067939;28;20222;-84
2024/01/20 09:23:11;;;;;;;13.27;2.20;;;24.50;76.30;;;;;;5071250;28;20183;-77
2024/01/20 09:25:38;;;;;;;12.30;2.20;;;24.50;76.40;;;;;;5081535;28;20179;-77
2024/01/20 09:28:06;;;;;;;15.53;2.53;;;24.50;76.60;;;;;;5080753;28;20244;-79
2024/01/20 09:30:35;;;;;;;9.67;2.67;;;24.50;76.70;;;;;;5078702;28;20236;-76
2024/01/20 09:33:07;;;;;;;12.03;2.40;;;24.40;76.70;;;;;;5078115;28;20665;-76
2024/01/20 09:35:34;;;;;;;13.20;2.63;;;24.40;76.90;;;;;;5079729;28;20223;-79
2024/01/20 09:38:03;;;;;;;10.23;2.47;;;24.40;77.10;;;;;;5074166;28;20661;-78
2024/01/20 09:40:32;;;;;;;14.63;2.53;;;24.40;77.10;;;;;;5082670;28;20194;-78
2024/01/20 09:43:02;;;;;;;12.53;2.90;;;24.40;77.30;;;;;;5080024;28;20205;-79
2024/01/20 09:45:29;;;;;;;18.10;3.10;;;24.40;77.40;;;;;;5071674;28;20182;-77
2024/01/20 09:47:57;;;;;;;11.67;2.40;;;24.30;77.50;;;;;;5076418;28;20638;-79
2024/01/20 09:50:24;;;;;;;9.00;2.30;;;24.30;77.60;;;;;;5059145;28;20183;-80
2024/01/20 09:52:58;;;;;;;12.90;2.60;;;24.30;77.60;;;;;;5079090;28;20680;-83
2024/01/20 09:55:27;;;;;;;10.47;2.60;;;24.30;77.90;;;;;;5078103;28;20184;-75
2024/01/20 09:57:56;;;;;;;10.20;2.33;;;24.30;78.00;;;;;;5078488;28;20218;-75
2024/01/20 10:00:24;;;;;;;16.43;3.10;;;24.20;77.90;;;;;;5076784;28;20183;-77
2024/01/20 10:02:52;;;;;;;9.27;2.30;;;24.30;78.10;;;;;;5067671;28;20540;-77
2024/01/20 10:05:24;;;;;;;14.57;2.70;;;24.20;78.10;;;;;;5074889;28;20190;-77
2024/01/20 10:07:51;;;;;;;11.63;2.60;;;24.30;78.20;;;;;;5065642;28;20187;-77
2024/01/20 10:10:22;;;;;;;11.63;2.73;;;24.20;78.30;;;;;;5078251;28;20198;-78
2024/01/20 10:12:54;;;;;;;13.90;2.33;;;24.20;78.30;;;;;;5075396;28;20194;-75
2024/01/20 10:15:30;;;;;;;10.37;2.73;;;24.30;78.40;;;;;;5074852;28;20273;-78
2024/01/20 10:18:05;;;;;;;11.37;2.67;;;24.20;78.50;;;;;;5067888;28;20203;-78
2024/01/20 10:20:35;;;;;;;15.07;2.40;;;24.30;78.50;;;;;;5072678;28;20269;-76
2024/01/20 10:23:05;;;;;;;13.17;2.17;;;24.20;78.50;;;;;;5075575;28;20190;-78
2024/01/20 10:25:32;;;;;;;14.73;2.70;;;24.20;78.60;;;;;;5075442;28;20194;-77
2024/01/20 10:28:00;;;;;;;15.07;2.40;;;24.20;78.60;;;;;;5079114;28;20194;-75
2024/01/20 10:30:28;;;;;;;13.03;2.67;;;24.20;78.70;;;;;;5073910;28;20191;-80
2024/01/20 10:32:58;;;;;;;13.53;3.10;;;24.20;78.70;;;;;;5074434;28;20195;-79
2024/01/20 10:35:26;;;;;;;16.03;3.40;;;24.20;78.70;;;;;;5075307;28;20229;-79
2024/01/20 10:38:00;;;;;;;12.37;2.87;;;24.20;78.90;;;;;;5073426;28;20222;-77
2024/01/20 10:40:27;;;;;;;18.03;3.20;;;24.10;79.10;;;;;;5073633;28;20184;-76
2024/01/20 10:43:11;;;;;;;16.33;2.87;;;24.10;79.20;;;;;;5072533;28;20654;-80
2024/01/20 10:46:01;;;;;;;14.80;2.73;;;24.10;79.30;;;;;;5073905;28;20187;-78
2024/01/20 10:48:32;;;;;;;15.67;3.10;;;24.10;79.30;;;;;;5072253;28;20582;-78
2024/01/20 10:51:05;;;;;;;19.30;3.23;;;24.10;79.30;;;;;;5066010;28;20183;-77
2024/01/20 10:53:33;;;;;;;14.77;2.67;;;24.10;79.60;;;;;;5065102;28;20543;-79
2024/01/20 10:56:01;;;;;;;16.33;2.53;;;24.10;79.60;;;;;;5073441;28;20204;-78
2024/01/20 10:58:47;;;;;;;11.37;2.47;;;24.00;79.80;;;;;;5073806;28;20648;-79
2024/01/20 11:01:15;;;;;;;16.43;3.00;;;24.00;79.70;;;;;;5062199;28;20592;-77
2024/01/20 11:03:42;;;;;;;12.83;2.30;;;24.00;79.80;;;;;;5065677;28;20672;-79
2024/01/20 11:06:30;;;;;;;11.57;2.50;;;24.00;79.80;;;;;;5073905;28;20187;-77
2024/01/20 11:09:01;;;;;;;14.17;2.53;;;24.00;79.80;;;;;;5074138;28;20195;-78
2024/01/20 11:11:34;;;;;;;12.43;2.47;;;24.00;79.50;;;;;;5075670;28;20183;-78
2024/01/20 11:14:02;;;;;;;14.10;2.40;;;24.00;79.60;;;;;;5075674;28;20172;-77
2024/01/20 11:16:38;;;;;;;14.77;2.70;;;24.00;79.50;;;;;;5074342;28;20205;-79
2024/01/20 11:19:09;;;;;;;11.67;2.70;;;23.90;79.70;;;;;;5069162;28;20194;-78
2024/01/20 11:21:37;;;;;;;13.30;2.70;;;23.90;79.70;;;;;;5071382;28;20183;-77
2024/01/20 11:24:07;;;;;;;11.37;2.30;;;23.90;79.90;;;;;;5073890;28;20182;-78
2024/01/20 11:26:36;;;;;;;11.50;2.40;;;23.90;80.00;;;;;;5073115;28;20528;-79
2024/01/20 11:29:06;;;;;;;13.87;2.90;;;23.80;80.20;;;;;;5074147;28;20542;-78
2024/01/20 11:31:34;;;;;;;11.60;2.57;;;23.80;80.20;;;;;;5070695;28;20637;-78
2024/01/20 11:34:04;;;;;;;12.83;2.67;;;23.80;80.10;;;;;;5071929;28;20194;-76
2024/01/20 11:36:33;;;;;;;16.43;3.40;;;23.80;80.20;;;;;;5073111;28;20175;-78
2024/01/20 11:39:03;;;;;;;16.03;3.13;;;23.80;80.30;;;;;;5073662;28;20246;-77
2024/01/20 11:41:30;;;;;;;13.20;2.50;;;23.80;80.40;;;;;;5073638;28;20679;-78
2024/01/20 11:43:58;;;;;;;12.93;2.60;;;23.80;80.50;;;;;;5073143;28;20287;-77
2024/01/20 11:46:25;;;;;;;9.43;2.47;;;23.80;80.40;;;;;;5073027;28;20594;-78
2024/01/20 11:48:54;;;;;;;13.40;3.03;;;23.80;80.70;;;;;;5071822;28;20217;-77
2024/01/20 11:51:21;;;;;;;15.67;2.50;;;23.80;80.70;;;;;;5061664;28;20179;-78
2024/01/20 11:53:49;;;;;;;12.60;3.40;;;23.80;80.80;;;;;;5066632;28;20661;-79
2024/01/20 11:56:17;;;;;;;12.60;3.10;;;23.80;80.70;;;;;;5067266;28;20214;-77
2024/01/20 11:58:44;;;;;;;12.60;3.13;;;23.80;80.80;;;;;;5072973;28;20210;-78
2024/01/20 12:01:15;;;;;;;12.67;2.60;;;23.80;80.80;;;;;;5067512;28;20187;-77
2024/01/20 12:03:42;;;;;;;16.53;2.77;;;23.80;80.80;;;;;;5073455;28;20549;-78
2024/01/20 12:06:10;;;;;;;16.67;3.03;;;23.80;80.90;;;;;;5075644;28;20195;-78
2024/01/20 12:08:41;;;;;;;15.30;3.07;;;23.70;80.90;;;;;;5078471;28;20199;-78
2024/01/20 12:11:17;;;;;;;11.43;2.40;;;23.80;80.90;;;;;;5072884;28;20179;-78
2024/01/20 12:13:46;;;;;;;15.77;2.70;;;23.80;81.10;;;;;;5071069;28;20179;-78
2024/01/20 12:16:13;;;;;;;16.40;3.27;;;23.70;81.10;;;;;;5072909;28;20183;-77
2024/01/20 12:18:41;;;;;;;12.93;2.67;;;23.70;81.10;;;;;;5072358;28;20218;-79
2024/01/20 12:21:08;;;;;;;15.73;2.47;;;23.70;81.20;;;;;;5057714;28;20593;-78
2024/01/20 12:23:40;;;;;;;13.40;2.77;;;23.70;81.40;;;;;;5072145;28;20186;-79
2024/01/20 12:26:16;;;;;;;14.83;3.00;;;23.60;81.30;;;;;;5073147;28;20187;-80
2024/01/20 12:28:46;;;;;;;14.77;3.17;;;23.60;81.50;;;;;;5072431;28;20183;-78
2024/01/20 12:31:15;;;;;;;12.67;2.83;;;23.60;81.60;;;;;;5072758;28;20198;-79
2024/01/20 12:33:42;;;;;;;15.57;3.13;;;23.60;81.70;;;;;;5072215;28;20661;-79
2024/01/20 12:36:10;;;;;;;15.23;3.37;;;23.50;81.70;;;;;;5072404;28;20706;-79
2024/01/20 12:38:37;;;;;;;11.57;2.70;;;23.50;81.70;;;;;;5072556;28;20218;-79
2024/01/20 12:41:05;;;;;;;14.53;2.93;;;23.50;81.80;;;;;;5072673;28;20533;-80
2024/01/20 12:43:32;;;;;;;13.43;3.23;;;23.50;81.90;;;;;;5071481;28;20187;-81
2024/01/20 12:45:59;;;;;;;22.70;3.17;;;23.40;81.80;;;;;;5079703;28;20190;-79